createdAt,value
2023-02-05T00:00:51.619Z,20.00
2023-02-05T00:03:20.034Z,20.00
2023-02-05T00:05:48.364Z,20.00
2023-02-05T00:08:16.716Z,20.00
2023-02-05T00:10:51.545Z,20.00
2023-02-05T00:13:19.947Z,19.90
2023-02-05T00:15:49.741Z,19.90
2023-02-05T00:18:21.209Z,19.90
2023-02-05T00:20:50.548Z,19.90
2023-02-05T00:23:18.928Z,19.90
2023-02-05T00:25:48.720Z,19.80
2023-02-05T00:28:17.082Z,19.80
2023-02-05T00:30:45.583Z,19.80
2023-02-05T00:33:13.937Z,19.80
2023-02-05T00:35:43.470Z,19.80
2023-02-05T00:38:11.836Z,19.80
2023-02-05T00:40:40.173Z,19.70
2023-02-05T00:43:12.604Z,19.70
2023-02-05T00:45:40.957Z,19.70
2023-02-05T00:48:09.312Z,19.70
2023-02-05T00:50:37.677Z,19.70
2023-02-05T00:53:08.858Z,19.70
2023-02-05T00:55:37.184Z,19.70
2023-02-05T00:58:05.534Z,19.70
2023-02-05T01:00:35.216Z,19.70
2023-02-05T01:03:03.510Z,19.60
2023-02-05T01:05:32.030Z,19.60
2023-02-05T01:08:02.160Z,19.60
2023-02-05T01:10:32.097Z,19.60
2023-02-05T01:13:00.489Z,19.60
2023-02-05T01:15:32.134Z,19.60
2023-02-05T01:18:02.065Z,19.60
2023-02-05T01:20:30.423Z,19.60
2023-02-05T01:22:58.739Z,19.60
2023-02-05T01:25:27.102Z,19.60
2023-02-05T01:27:55.586Z,19.60
2023-02-05T01:30:24.005Z,19.60
2023-02-05T01:32:52.365Z,19.50
2023-02-05T01:35:23.548Z,19.60
2023-02-05T01:37:51.929Z,19.50
2023-02-05T01:40:20.682Z,19.50
2023-02-05T01:42:51.801Z,19.50
2023-02-05T01:46:07.845Z,19.50
2023-02-05T01:48:39.387Z,19.50
2023-02-05T01:51:10.196Z,19.50
2023-02-05T01:53:38.866Z,19.50
2023-02-05T01:56:09.329Z,19.50
2023-02-05T01:58:42.211Z,19.50
2023-02-05T02:01:10.558Z,19.50
2023-02-05T02:03:38.898Z,19.50
2023-02-05T02:06:09.090Z,19.50
2023-02-05T02:08:37.402Z,19.50
2023-02-05T02:11:07.115Z,19.50
2023-02-05T02:13:36.049Z,19.50
2023-02-05T02:16:04.862Z,19.50
2023-02-05T02:18:33.392Z,19.40
2023-02-05T02:21:35.372Z,19.40
2023-02-05T02:24:31.465Z,19.40
2023-02-05T02:27:18.916Z,19.40
2023-02-05T02:29:52.430Z,19.40
2023-02-05T02:32:24.099Z,19.40
2023-02-05T02:34:56.061Z,19.40
2023-02-05T02:37:26.369Z,19.40
2023-02-05T02:39:58.702Z,19.40
2023-02-05T02:42:30.337Z,19.40
2023-02-05T02:45:00.876Z,19.40
2023-02-05T02:47:31.854Z,19.40
2023-02-05T02:50:01.898Z,19.40
2023-02-05T02:52:32.947Z,19.40
2023-02-05T02:55:05.384Z,19.30
2023-02-05T02:57:33.735Z,19.40
2023-02-05T03:00:04.962Z,19.30
2023-02-05T03:02:33.849Z,19.30
2023-02-05T03:05:04.146Z,19.30
2023-02-05T03:07:34.080Z,19.30
2023-02-05T03:10:03.972Z,19.30
2023-02-05T03:12:32.382Z,19.30
2023-02-05T03:15:00.757Z,19.30
2023-02-05T03:17:30.544Z,19.30
2023-02-05T03:20:00.332Z,19.30
2023-02-05T03:22:28.795Z,19.30
2023-02-05T03:24:57.093Z,19.30
2023-02-05T03:27:25.386Z,19.30
2023-02-05T03:29:53.690Z,19.30
2023-02-05T03:32:28.479Z,19.30
2023-02-05T03:35:03.901Z,19.30
2023-02-05T03:37:38.675Z,19.30
2023-02-05T03:40:10.594Z,19.30
2023-02-05T03:42:44.403Z,19.30
2023-02-05T03:45:20.882Z,19.30
2023-02-05T03:47:58.051Z,19.20
2023-02-05T03:50:29.180Z,19.20
2023-02-05T03:53:00.513Z,19.20
2023-02-05T03:55:29.960Z,19.20
2023-02-05T03:57:59.701Z,19.20
2023-02-05T04:00:27.990Z,19.20
2023-02-05T04:02:56.331Z,19.20
2023-02-05T04:05:27.438Z,19.20
2023-02-05T04:07:57.111Z,19.20
2023-02-05T04:10:25.512Z,19.20
2023-02-05T04:12:53.801Z,19.20
2023-02-05T04:15:22.155Z,19.20
2023-02-05T04:17:50.443Z,19.20
2023-02-05T04:20:19.180Z,19.20
2023-02-05T04:22:47.476Z,19.20
2023-02-05T04:25:17.315Z,19.20
2023-02-05T04:27:45.620Z,19.20
2023-02-05T04:30:14.320Z,19.20
2023-02-05T04:32:42.656Z,19.10
2023-02-05T04:35:11.101Z,19.10
2023-02-05T04:37:42.337Z,19.10
2023-02-05T04:40:11.412Z,19.10
2023-02-05T04:42:41.143Z,19.10
2023-02-05T04:45:10.540Z,19.10
2023-02-05T04:47:38.894Z,19.10
2023-02-05T04:50:07.629Z,19.10
2023-02-05T04:52:35.937Z,19.10
2023-02-05T04:55:04.350Z,19.00
2023-02-05T04:57:32.717Z,19.00
2023-02-05T05:00:02.398Z,19.00
2023-02-05T05:02:30.766Z,19.00
2023-02-05T05:05:01.553Z,19.00
2023-02-05T05:07:31.033Z,19.00
2023-02-05T05:09:59.393Z,19.00
2023-02-05T05:12:27.738Z,18.90
2023-02-05T05:14:56.467Z,19.00
2023-02-05T05:17:26.123Z,18.90
2023-02-05T05:19:54.442Z,18.90
2023-02-05T05:22:22.797Z,18.90
2023-02-05T05:24:51.149Z,19.00
2023-02-05T05:27:19.623Z,18.90
2023-02-05T05:29:48.086Z,18.90
2023-02-05T05:32:16.456Z,19.00
2023-02-05T05:34:46.245Z,19.00
2023-02-05T05:37:14.534Z,19.00
2023-02-05T05:40:00.570Z,19.00
2023-02-05T05:42:46.371Z,19.00
2023-02-05T05:45:14.886Z,19.00
2023-02-05T05:47:43.206Z,19.00
2023-02-05T05:50:16.203Z,19.00
2023-02-05T05:52:44.511Z,19.00
2023-02-05T05:55:12.803Z,19.00
2023-02-05T05:57:41.151Z,19.00
2023-02-05T06:00:10.879Z,19.00
2023-02-05T06:02:41.402Z,19.00
2023-02-05T06:05:10.022Z,19.00
2023-02-05T06:07:39.687Z,19.00
2023-02-05T06:10:08.918Z,19.00
2023-02-05T06:12:43.238Z,19.00
2023-02-05T06:15:11.678Z,19.00
2023-02-05T06:17:39.980Z,19.10
2023-02-05T06:20:09.653Z,19.00
2023-02-05T06:22:39.387Z,19.00
2023-02-05T06:25:07.906Z,19.10
2023-02-05T06:27:36.201Z,19.10
2023-02-05T06:30:07.066Z,19.10
2023-02-05T06:32:35.422Z,19.10
2023-02-05T06:35:03.725Z,19.20
2023-02-05T06:37:46.832Z,19.20
2023-02-05T06:40:18.097Z,19.20
2023-02-05T06:42:46.683Z,19.20
2023-02-05T06:45:15.072Z,19.20
2023-02-05T06:47:43.374Z,19.30
2023-02-05T06:50:11.760Z,19.30
2023-02-05T06:52:43.202Z,19.30
2023-02-05T06:55:11.570Z,19.30
2023-02-05T06:57:41.282Z,19.40
2023-02-05T07:00:11.355Z,19.40
2023-02-05T07:02:39.700Z,19.40
2023-02-05T07:05:08.364Z,19.50
2023-02-05T07:07:36.750Z,19.50
2023-02-05T07:10:05.596Z,19.50
2023-02-05T07:12:33.940Z,19.50
2023-02-05T07:15:03.660Z,19.50
2023-02-05T07:17:34.390Z,19.50
2023-02-05T07:20:02.757Z,19.60
2023-02-05T07:22:31.060Z,19.60
2023-02-05T07:24:59.391Z,19.70
2023-02-05T07:27:27.868Z,19.70
2023-02-05T07:29:56.918Z,19.70
2023-02-05T07:32:27.306Z,19.80
2023-02-05T07:34:56.028Z,19.80
2023-02-05T07:37:24.492Z,19.90
2023-02-05T07:39:52.905Z,19.90
2023-02-05T07:42:21.432Z,19.90
2023-02-05T07:44:49.886Z,19.90
2023-02-05T07:47:18.350Z,20.00
2023-02-05T07:49:48.512Z,20.00
2023-02-05T07:52:17.055Z,20.00
2023-02-05T07:54:45.497Z,20.00
2023-02-05T07:57:14.137Z,20.10
2023-02-05T07:59:42.589Z,20.10
2023-02-05T08:02:11.114Z,20.10
2023-02-05T08:04:39.528Z,20.10
2023-02-05T08:07:10.201Z,20.10
2023-02-05T08:09:38.588Z,20.10
2023-02-05T08:12:07.581Z,20.20
2023-02-05T08:14:36.577Z,20.20
2023-02-05T08:17:06.043Z,20.20
2023-02-05T08:19:34.420Z,20.20
2023-02-05T08:22:02.828Z,20.20
2023-02-05T08:24:33.922Z,20.20
2023-02-05T08:27:02.229Z,20.20
2023-02-05T08:29:30.516Z,20.20
2023-02-05T08:31:58.840Z,20.20
2023-02-05T08:34:27.286Z,20.20
2023-02-05T08:36:59.748Z,20.30
2023-02-05T08:39:30.294Z,20.30
2023-02-05T08:41:59.980Z,20.30
2023-02-05T08:44:29.035Z,20.30
2023-02-05T08:47:03.559Z,20.30
2023-02-05T08:49:31.964Z,20.30
2023-02-05T08:52:00.352Z,20.30
2023-02-05T08:54:28.704Z,20.30
2023-02-05T08:56:57.475Z,20.30
2023-02-05T08:59:27.184Z,20.30
2023-02-05T09:01:55.757Z,20.20
2023-02-05T09:04:25.541Z,20.20
2023-02-05T09:06:54.468Z,20.20
2023-02-05T09:09:22.981Z,20.20
2023-02-05T09:11:53.682Z,20.20
2023-02-05T09:14:22.267Z,20.20
2023-02-05T09:16:52.185Z,20.10
2023-02-05T09:19:20.654Z,20.00
2023-02-05T09:21:49.196Z,20.00
2023-02-05T09:24:17.744Z,20.00
2023-02-05T09:26:46.291Z,20.00
2023-02-05T09:29:14.700Z,19.90
2023-02-05T09:31:43.243Z,20.00
2023-02-05T09:34:13.581Z,19.90
2023-02-05T09:36:42.274Z,20.00
2023-02-05T09:39:18.424Z,20.00
2023-02-05T09:42:01.264Z,20.00
2023-02-05T09:44:42.712Z,19.90
2023-02-05T09:47:14.596Z,19.90
2023-02-05T09:49:46.651Z,19.90
2023-02-05T09:52:19.193Z,20.00
2023-02-05T09:54:49.379Z,20.00
2023-02-05T09:57:19.053Z,20.00
2023-02-05T09:59:48.161Z,19.90
2023-02-05T10:02:23.598Z,20.00
2023-02-05T10:04:54.876Z,19.90
2023-02-05T10:07:39.340Z,19.90
2023-02-05T10:10:26.820Z,19.90
2023-02-05T10:13:23.569Z,19.90
2023-02-05T10:16:04.465Z,19.90
2023-02-05T10:18:36.466Z,19.90
2023-02-05T10:21:11.164Z,19.90
2023-02-05T10:23:54.624Z,19.90
2023-02-05T10:26:23.597Z,19.90
2023-02-05T10:29:03.706Z,19.90
2023-02-05T10:31:40.546Z,19.90
2023-02-05T10:34:20.894Z,19.90
2023-02-05T10:36:54.752Z,19.90
2023-02-05T10:39:26.329Z,19.90
2023-02-05T10:41:57.341Z,19.80
2023-02-05T10:44:29.639Z,19.90
2023-02-05T10:47:03.618Z,19.80
2023-02-05T10:49:39.490Z,19.90
2023-02-05T10:52:11.243Z,19.90
2023-02-05T10:54:40.337Z,19.90
2023-02-05T10:57:13.580Z,19.90
2023-02-05T10:59:48.978Z,19.90
2023-02-05T11:02:17.328Z,19.90
2023-02-05T11:04:47.767Z,19.90
2023-02-05T11:07:22.912Z,19.90
2023-02-05T11:09:51.220Z,20.00
2023-02-05T11:12:24.089Z,20.00
2023-02-05T11:14:57.448Z,20.00
2023-02-05T11:17:29.838Z,20.10
2023-02-05T11:20:00.059Z,20.10
2023-02-05T11:22:30.416Z,20.10
2023-02-05T11:25:12.174Z,20.10
2023-02-05T11:27:40.631Z,20.10
2023-02-05T11:30:49.689Z,20.10
2023-02-05T11:33:20.153Z,20.20
2023-02-05T11:35:53.383Z,20.20
2023-02-05T11:38:29.870Z,20.20
2023-02-05T11:40:59.507Z,20.30
2023-02-05T11:43:29.556Z,20.40
2023-02-05T11:45:58.587Z,20.50
2023-02-05T11:48:32.700Z,20.50
2023-02-05T11:51:01.250Z,20.50
2023-02-05T11:53:32.888Z,20.60
2023-02-05T11:56:02.971Z,20.60
2023-02-05T11:58:36.964Z,20.60
2023-02-05T12:01:07.908Z,20.60
2023-02-05T12:03:36.399Z,20.60
2023-02-05T12:06:12.766Z,20.60
2023-02-05T12:08:44.689Z,20.60
2023-02-05T12:11:56.060Z,20.60
2023-02-05T12:14:27.524Z,20.60
2023-02-05T12:16:59.844Z,20.60
2023-02-05T12:19:33.076Z,20.70
2023-02-05T12:22:03.343Z,20.80
2023-02-05T12:24:54.552Z,21.00
2023-02-05T12:27:35.326Z,21.30
2023-02-05T12:30:11.481Z,21.40
2023-02-05T12:32:42.662Z,21.60
2023-02-05T12:35:21.367Z,21.80
2023-02-05T12:37:52.206Z,22.10
2023-02-05T12:40:37.503Z,22.00
2023-02-05T12:43:10.540Z,21.90
2023-02-05T12:45:45.620Z,21.70
2023-02-05T12:48:22.221Z,21.60
2023-02-05T12:50:55.254Z,21.50
2023-02-05T12:53:40.438Z,21.40
2023-02-05T12:56:33.620Z,21.40
2023-02-05T12:59:03.466Z,21.30
2023-02-05T13:01:38.231Z,21.30
2023-02-05T13:04:06.757Z,21.30
2023-02-05T13:06:36.183Z,21.20
2023-02-05T13:09:06.120Z,21.20
2023-02-05T13:11:37.983Z,21.10
2023-02-05T13:14:09.724Z,21.10
2023-02-05T13:16:41.214Z,21.10
2023-02-05T13:19:16.172Z,21.00
2023-02-05T13:22:02.294Z,21.00
2023-02-05T13:24:48.883Z,21.00
2023-02-05T13:27:39.686Z,21.00
2023-02-05T13:30:10.389Z,21.00
2023-02-05T13:32:39.088Z,21.00
2023-02-05T13:35:08.629Z,21.00
2023-02-05T13:37:55.709Z,21.00
2023-02-05T13:40:44.622Z,20.90
2023-02-05T13:43:32.754Z,20.90
2023-02-05T13:46:28.191Z,20.80
2023-02-05T13:49:15.811Z,20.80
2023-02-05T13:51:53.946Z,20.80
2023-02-05T13:54:36.106Z,20.90
2023-02-05T13:57:14.195Z,21.20
2023-02-05T13:59:46.048Z,21.40
2023-02-05T14:02:32.388Z,21.30
2023-02-05T14:05:00.738Z,21.30
2023-02-05T14:07:30.072Z,21.20
2023-02-05T14:10:00.687Z,21.20
2023-02-05T14:12:30.143Z,21.10
2023-02-05T14:15:24.717Z,21.10
2023-02-05T14:17:54.716Z,21.10
2023-02-05T14:20:36.607Z,21.10
2023-02-05T14:23:12.918Z,21.00
2023-02-05T14:26:06.636Z,21.00
2023-02-05T14:28:36.697Z,20.90
2023-02-05T14:31:07.401Z,20.90
2023-02-05T14:33:40.079Z,20.90
2023-02-05T14:36:29.849Z,20.90
2023-02-05T14:39:00.846Z,20.90
2023-02-05T14:41:31.086Z,20.90
2023-02-05T14:44:01.265Z,20.80
2023-02-05T14:46:33.913Z,20.80
2023-02-05T14:49:03.352Z,20.80
2023-02-05T14:51:37.570Z,20.80
2023-02-05T14:54:06.948Z,20.80
2023-02-05T14:56:39.355Z,20.80
2023-02-05T14:59:17.708Z,20.80
2023-02-05T15:01:54.245Z,20.80
2023-02-05T15:04:28.756Z,20.80
2023-02-05T15:06:57.590Z,20.80
2023-02-05T15:09:38.198Z,20.70
2023-02-05T15:12:25.672Z,20.70
2023-02-05T15:14:54.828Z,21.00
2023-02-05T15:17:53.224Z,21.30
2023-02-05T15:20:24.065Z,21.60
2023-02-05T15:22:55.669Z,21.60
2023-02-05T15:25:31.568Z,21.50
2023-02-05T15:28:02.409Z,21.30
2023-02-05T15:30:33.282Z,21.10
2023-02-05T15:33:06.421Z,21.00
2023-02-05T15:35:34.999Z,20.90
2023-02-05T15:38:04.786Z,20.80
2023-02-05T15:40:34.132Z,20.70
2023-02-05T15:43:02.989Z,20.70
2023-02-05T15:45:33.589Z,20.60
2023-02-05T15:48:04.112Z,20.60
2023-02-05T15:50:32.468Z,20.60
2023-02-05T15:53:00.763Z,20.60
2023-02-05T15:55:29.217Z,20.50
2023-02-05T15:58:00.446Z,20.50
2023-02-05T16:00:30.331Z,20.40
2023-02-05T16:02:59.821Z,20.30
2023-02-05T16:05:30.221Z,20.30
2023-02-05T16:07:59.044Z,20.30
2023-02-05T16:10:28.473Z,20.30
2023-02-05T16:13:06.360Z,20.20
2023-02-05T16:15:36.026Z,20.20
2023-02-05T16:18:04.704Z,20.20
2023-02-05T16:20:35.401Z,20.20
2023-02-05T16:23:05.246Z,20.10
2023-02-05T16:25:36.453Z,20.10
2023-02-05T16:28:07.146Z,20.10
2023-02-05T16:30:40.588Z,20.10
2023-02-05T16:33:09.280Z,20.00
2023-02-05T16:35:40.199Z,20.00
2023-02-05T16:38:14.373Z,20.00
2023-02-05T16:40:43.971Z,20.20
2023-02-05T16:43:26.718Z,20.50
2023-02-05T16:46:23.663Z,20.90
2023-02-05T16:48:53.128Z,20.80
2023-02-05T16:51:31.760Z,20.70
2023-02-05T16:54:01.195Z,20.60
2023-02-05T16:56:30.557Z,20.50
2023-02-05T16:59:00.423Z,20.40
2023-02-05T17:01:32.303Z,20.30
2023-02-05T17:04:00.894Z,20.30
2023-02-05T17:06:34.269Z,20.20
2023-02-05T17:09:04.976Z,20.20
2023-02-05T17:11:36.322Z,20.10
2023-02-05T17:14:24.505Z,20.10
2023-02-05T17:16:57.974Z,20.00
2023-02-05T17:19:27.728Z,20.00
2023-02-05T17:22:21.784Z,20.10
2023-02-05T17:24:52.406Z,20.10
2023-02-05T17:27:43.861Z,20.10
2023-02-05T17:30:17.449Z,20.10
2023-02-05T17:32:47.245Z,20.10
2023-02-05T17:35:16.667Z,20.20
2023-02-05T17:37:46.680Z,20.20
2023-02-05T17:40:15.661Z,20.20
2023-02-05T17:42:46.294Z,20.20
2023-02-05T17:45:17.254Z,20.20
2023-02-05T17:47:46.107Z,20.30
2023-02-05T17:50:15.196Z,20.30
2023-02-05T17:52:45.247Z,20.30
2023-02-05T17:55:16.953Z,20.30
2023-02-05T17:57:45.476Z,20.30
2023-02-05T18:00:17.236Z,20.30
2023-02-05T18:02:45.675Z,20.30
2023-02-05T18:05:15.524Z,20.40
2023-02-05T18:07:46.468Z,20.40
2023-02-05T18:10:18.120Z,20.30
2023-02-05T18:12:46.898Z,20.40
2023-02-05T18:15:15.409Z,20.40
2023-02-05T18:17:43.847Z,20.40
2023-02-05T18:20:12.662Z,20.40
2023-02-05T18:22:41.071Z,20.40
2023-02-05T18:25:09.866Z,20.50
2023-02-05T18:27:40.693Z,20.40
2023-02-05T18:30:12.962Z,20.40
2023-02-05T18:32:41.260Z,20.40
2023-02-05T18:35:14.220Z,20.40
2023-02-05T18:37:42.990Z,20.50
2023-02-05T18:40:15.164Z,20.50
2023-02-05T18:42:48.778Z,20.50
2023-02-05T18:45:17.199Z,20.50
2023-02-05T18:47:45.560Z,20.50
2023-02-05T18:50:13.920Z,20.60
2023-02-05T18:52:49.150Z,20.60
2023-02-05T18:55:17.516Z,20.60
2023-02-05T18:57:47.167Z,20.60
2023-02-05T19:00:16.266Z,20.60
2023-02-05T19:02:44.639Z,20.60
2023-02-05T19:05:12.976Z,20.60
2023-02-05T19:07:41.407Z,20.70
2023-02-05T19:10:09.873Z,20.60
2023-02-05T19:12:38.240Z,20.70
2023-02-05T19:15:09.035Z,20.70
2023-02-05T19:17:37.394Z,20.70
2023-02-05T19:20:08.519Z,20.70
2023-02-05T19:22:36.861Z,20.70
2023-02-05T19:25:05.231Z,20.70
2023-02-05T19:27:36.079Z,20.70
2023-02-05T19:30:05.855Z,20.70
2023-02-05T19:32:35.898Z,20.80
2023-02-05T19:35:06.241Z,20.80
2023-02-05T19:37:34.556Z,20.80
2023-02-05T19:40:02.917Z,20.80
2023-02-05T19:42:31.316Z,20.80
2023-02-05T19:44:59.659Z,20.80
2023-02-05T19:47:29.051Z,20.80
2023-02-05T19:49:58.754Z,20.70
2023-02-05T19:52:27.102Z,20.80
2023-02-05T19:54:55.534Z,20.80
2023-02-05T19:57:24.900Z,20.80
2023-02-05T19:59:53.195Z,20.80
2023-02-05T20:02:22.534Z,20.80
2023-02-05T20:04:50.950Z,20.80
2023-02-05T20:07:20.660Z,20.80
2023-02-05T20:09:50.436Z,20.80
2023-02-05T20:12:20.911Z,20.80
2023-02-05T20:14:49.237Z,20.80
2023-02-05T20:17:26.638Z,20.80
2023-02-05T20:20:02.558Z,20.80
2023-02-05T20:22:38.962Z,20.80
2023-02-05T20:25:08.083Z,20.80
2023-02-05T20:27:36.461Z,20.80
2023-02-05T20:30:34.826Z,20.80
2023-02-05T20:33:03.392Z,20.80
2023-02-05T20:35:31.875Z,20.80
2023-02-05T20:38:06.973Z,20.80
2023-02-05T20:40:35.589Z,20.80
2023-02-05T20:43:07.081Z,20.80
2023-02-05T20:45:35.470Z,20.80
2023-02-05T20:48:03.851Z,20.80
2023-02-05T20:50:32.252Z,20.80
2023-02-05T20:53:03.747Z,20.80
2023-02-05T20:55:32.103Z,20.80
2023-02-05T20:58:00.449Z,20.80
2023-02-05T21:00:29.032Z,20.70
2023-02-05T21:02:58.616Z,20.70
2023-02-05T21:05:27.007Z,20.70
2023-02-05T21:07:55.373Z,20.80
2023-02-05T21:10:25.024Z,20.70
2023-02-05T21:12:53.311Z,20.70
2023-02-05T21:15:21.654Z,20.70
2023-02-05T21:17:52.785Z,20.60
2023-02-05T21:20:21.244Z,20.60
2023-02-05T21:22:49.620Z,20.60
2023-02-05T21:25:18.190Z,20.70
2023-02-05T21:27:50.268Z,20.70
2023-02-05T21:30:18.936Z,20.70
2023-02-05T21:32:47.260Z,20.60
2023-02-05T21:35:15.690Z,20.60
2023-02-05T21:37:44.253Z,20.60
2023-02-05T21:40:16.041Z,20.60
2023-02-05T21:42:44.463Z,20.60
2023-02-05T21:45:14.290Z,20.60
2023-02-05T21:47:42.930Z,20.60
2023-02-05T21:50:11.471Z,20.60
2023-02-05T21:52:39.848Z,20.60
2023-02-05T21:55:08.899Z,20.60
2023-02-05T21:57:37.214Z,20.60
2023-02-05T22:00:05.879Z,20.60
2023-02-05T22:02:35.611Z,20.50
2023-02-05T22:05:05.527Z,20.50
2023-02-05T22:07:34.084Z,20.50
2023-02-05T22:10:02.416Z,20.40
2023-02-05T22:12:33.517Z,20.40
2023-02-05T22:15:01.800Z,20.30
2023-02-05T22:17:30.145Z,20.30
2023-02-05T22:20:02.509Z,20.30
2023-02-05T22:22:30.869Z,20.30
2023-02-05T22:24:59.223Z,20.30
2023-02-05T22:27:27.932Z,20.30
2023-02-05T22:29:58.943Z,20.20
2023-02-05T22:32:29.179Z,20.20
2023-02-05T22:35:00.763Z,20.20
2023-02-05T22:37:29.455Z,20.20
2023-02-05T22:39:57.754Z,20.20
2023-02-05T22:42:26.864Z,20.20
2023-02-05T22:44:58.889Z,20.20
2023-02-05T22:47:27.352Z,20.20
2023-02-05T22:49:55.690Z,20.20
2023-02-05T22:52:26.198Z,20.20
2023-02-05T22:54:54.550Z,20.30
2023-02-05T22:57:22.845Z,20.30
2023-02-05T22:59:54.249Z,20.30
2023-02-05T23:02:22.621Z,20.30
2023-02-05T23:04:50.921Z,20.30
2023-02-05T23:07:19.231Z,20.30
2023-02-05T23:09:49.123Z,20.30
2023-02-05T23:12:18.755Z,20.20
2023-02-05T23:14:48.340Z,20.30
2023-02-05T23:17:16.789Z,20.20
2023-02-05T23:19:46.540Z,20.20
2023-02-05T23:22:16.135Z,20.10
2023-02-05T23:24:44.496Z,20.10
2023-02-05T23:27:14.379Z,20.10
2023-02-05T23:29:44.031Z,20.10
2023-02-05T23:32:15.035Z,20.10
2023-02-05T23:34:43.400Z,20.10
2023-02-05T23:37:11.839Z,20.00
2023-02-05T23:39:40.182Z,20.10
2023-02-05T23:42:10.084Z,20.00
2023-02-05T23:44:39.787Z,20.10
2023-02-05T23:47:09.105Z,20.00
2023-02-05T23:49:37.689Z,20.00
2023-02-05T23:52:06.192Z,20.00
2023-02-05T23:54:34.490Z,20.00
2023-02-05T23:57:02.840Z,20.00
2023-02-05T23:59:31.179Z,20.00
